sensor_id;sensor_type;location;lat;lon;timestamp;P1;durP1;ratioP1;P2;durP2;ratioP2
39694;SDS011;25367;-35.352;149.036;2023-04-24T05:17:24;33.80;;;2.22;;
39694;SDS011;25367;-35.352;149.036;2023-04-24T05:19:56;36.20;;;2.88;;
39694;SDS011;25367;-35.352;149.036;2023-04-24T05:22:26;19.20;;;2.25;;
39694;SDS011;25367;-35.352;149.036;2023-04-24T05:24:55;6.72;;;1.27;;
39694;SDS011;25367;-35.352;149.036;2023-04-24T05:27:42;4.07;;;1.02;;
39694;SDS011;25367;-35.352;149.036;2023-04-24T05:30:15;10.40;;;2.05;;
39694;SDS011;25367;-35.352;149.036;2023-04-24T05:32:47;14.10;;;1.85;;
39694;SDS011;25367;-35.352;149.036;2023-04-24T05:35:17;12.00;;;1.40;;
39694;SDS011;25367;-35.352;149.036;2023-04-24T05:37:46;7.68;;;1.23;;
39694;SDS011;25367;-35.352;149.036;2023-04-24T05:40:16;11.35;;;1.20;;
39694;SDS011;25367;-35.352;149.036;2023-04-24T05:42:46;8.07;;;1.52;;
39694;SDS011;25367;-35.352;149.036;2023-04-24T05:45:15;5.85;;;1.10;;
39694;SDS011;25367;-35.352;149.036;2023-04-24T05:47:47;10.63;;;1.38;;
39694;SDS011;25367;-35.352;149.036;2023-04-24T05:50:17;4.40;;;1.30;;
39694;SDS011;25367;-35.352;149.036;2023-04-24T05:52:47;5.45;;;1.20;;
39694;SDS011;25367;-35.352;149.036;2023-04-24T05:55:26;6.85;;;1.83;;
39694;SDS011;25367;-35.352;149.036;2023-04-24T05:57:55;6.38;;;1.48;;
39694;SDS011;25367;-35.352;149.036;2023-04-24T06:00:26;7.75;;;1.75;;
39694;SDS011;25367;-35.352;149.036;2023-04-24T06:03:04;4.43;;;1.40;;
39694;SDS011;25367;-35.352;149.036;2023-04-24T06:05:34;3.65;;;1.33;;
39694;SDS011;25367;-35.352;149.036;2023-04-24T06:08:04;9.77;;;1.92;;
39694;SDS011;25367;-35.352;149.036;2023-04-24T06:10:37;7.40;;;1.55;;
39694;SDS011;25367;-35.352;149.036;2023-04-24T06:13:08;11.07;;;1.95;;
39694;SDS011;25367;-35.352;149.036;2023-04-24T06:15:40;6.05;;;1.80;;
39694;SDS011;25367;-35.352;149.036;2023-04-24T06:18:18;13.60;;;1.55;;
39694;SDS011;25367;-35.352;149.036;2023-04-24T06:20:49;4.63;;;1.80;;
39694;SDS011;25367;-35.352;149.036;2023-04-24T06:23:18;6.70;;;1.17;;
39694;SDS011;25367;-35.352;149.036;2023-04-24T06:25:48;9.07;;;1.63;;
39694;SDS011;25367;-35.352;149.036;2023-04-24T06:28:18;3.20;;;1.15;;
39694;SDS011;25367;-35.352;149.036;2023-04-24T06:30:47;23.08;;;2.40;;
39694;SDS011;25367;-35.352;149.036;2023-04-24T06:33:19;6.88;;;0.90;;
39694;SDS011;25367;-35.352;149.036;2023-04-24T06:35:48;8.55;;;0.82;;
39694;SDS011;25367;-35.352;149.036;2023-04-24T06:38:18;6.63;;;1.20;;
39694;SDS011;25367;-35.352;149.036;2023-04-24T06:40:47;2.88;;;0.65;;
39694;SDS011;25367;-35.352;149.036;2023-04-24T06:43:17;6.38;;;0.98;;
39694;SDS011;25367;-35.352;149.036;2023-04-24T06:45:46;3.67;;;0.90;;
39694;SDS011;25367;-35.352;149.036;2023-04-24T06:48:15;4.28;;;1.00;;
39694;SDS011;25367;-35.352;149.036;2023-04-24T06:50:47;5.25;;;0.80;;
39694;SDS011;25367;-35.352;149.036;2023-04-24T06:53:16;1.95;;;0.60;;
39694;SDS011;25367;-35.352;149.036;2023-04-24T06:55:46;3.67;;;0.77;;
39694;SDS011;25367;-35.352;149.036;2023-04-24T06:58:15;5.25;;;0.65;;
39694;SDS011;25367;-35.352;149.036;2023-04-24T07:00:45;2.47;;;0.73;;
39694;SDS011;25367;-35.352;149.036;2023-04-24T07:03:14;3.03;;;0.85;;
39694;SDS011;25367;-35.352;149.036;2023-04-24T07:05:45;2.25;;;0.77;;
39694;SDS011;25367;-35.352;149.036;2023-04-24T07:08:15;2.60;;;0.80;;
39694;SDS011;25367;-35.352;149.036;2023-04-24T07:10:45;3.40;;;0.80;;
39694;SDS011;25367;-35.352;149.036;2023-04-24T07:13:14;4.03;;;0.70;;
39694;SDS011;25367;-35.352;149.036;2023-04-24T07:15:43;12.30;;;1.60;;
39694;SDS011;25367;-35.352;149.036;2023-04-24T07:18:13;7.10;;;1.70;;
39694;SDS011;25367;-35.352;149.036;2023-04-24T07:20:42;17.50;;;3.13;;
39694;SDS011;25367;-35.352;149.036;2023-04-24T07:23:13;7.43;;;2.70;;
39694;SDS011;25367;-35.352;149.036;2023-04-24T07:25:43;9.02;;;2.53;;
39694;SDS011;25367;-35.352;149.036;2023-04-24T07:28:12;9.57;;;2.25;;
39694;SDS011;25367;-35.352;149.036;2023-04-24T07:30:41;8.30;;;2.70;;
39694;SDS011;25367;-35.352;149.036;2023-04-24T07:33:11;9.52;;;2.42;;
39694;SDS011;25367;-35.352;149.036;2023-04-24T07:35:41;8.73;;;2.13;;
39694;SDS011;25367;-35.352;149.036;2023-04-24T07:38:12;7.25;;;1.98;;
39694;SDS011;25367;-35.352;149.036;2023-04-24T07:40:42;9.05;;;2.33;;
39694;SDS011;25367;-35.352;149.036;2023-04-24T07:43:11;7.78;;;2.20;;
39694;SDS011;25367;-35.352;149.036;2023-04-24T07:45:41;6.72;;;2.03;;
39694;SDS011;25367;-35.352;149.036;2023-04-24T07:48:10;5.50;;;1.98;;
39694;SDS011;25367;-35.352;149.036;2023-04-24T07:50:40;12.50;;;2.33;;
39694;SDS011;25367;-35.352;149.036;2023-04-24T07:53:09;16.00;;;3.83;;
39694;SDS011;25367;-35.352;149.036;2023-04-24T07:55:41;10.43;;;1.98;;
39694;SDS011;25367;-35.352;149.036;2023-04-24T07:58:10;8.60;;;2.05;;
39694;SDS011;25367;-35.352;149.036;2023-04-24T08:00:39;5.25;;;1.85;;
39694;SDS011;25367;-35.352;149.036;2023-04-24T08:03:09;7.75;;;1.67;;
39694;SDS011;25367;-35.352;149.036;2023-04-24T08:05:38;4.55;;;1.55;;
39694;SDS011;25367;-35.352;149.036;2023-04-24T08:08:08;10.52;;;1.75;;
39694;SDS011;25367;-35.352;149.036;2023-04-24T08:10:41;4.38;;;1.27;;
39694;SDS011;25367;-35.352;149.036;2023-04-24T08:13:10;5.13;;;1.48;;
39694;SDS011;25367;-35.352;149.036;2023-04-24T08:15:40;9.85;;;1.65;;
39694;SDS011;25367;-35.352;149.036;2023-04-24T08:18:09;2.78;;;1.23;;
39694;SDS011;25367;-35.352;149.036;2023-04-24T08:20:39;4.40;;;1.45;;
39694;SDS011;25367;-35.352;149.036;2023-04-24T08:23:08;5.78;;;1.77;;
39694;SDS011;25367;-35.352;149.036;2023-04-24T08:25:41;6.40;;;2.30;;
39694;SDS011;25367;-35.352;149.036;2023-04-24T08:28:10;14.43;;;3.08;;
39694;SDS011;25367;-35.352;149.036;2023-04-24T08:30:40;10.88;;;1.80;;
39694;SDS011;25367;-35.352;149.036;2023-04-24T08:33:09;14.35;;;2.10;;
39694;SDS011;25367;-35.352;149.036;2023-04-24T08:35:38;20.50;;;2.28;;
39694;SDS011;25367;-35.352;149.036;2023-04-24T08:38:08;5.38;;;1.63;;
39694;SDS011;25367;-35.352;149.036;2023-04-24T08:40:37;9.73;;;1.35;;
39694;SDS011;25367;-35.352;149.036;2023-04-24T08:43:09;7.53;;;1.40;;
39694;SDS011;25367;-35.352;149.036;2023-04-24T08:45:39;12.85;;;1.85;;
39694;SDS011;25367;-35.352;149.036;2023-04-24T08:48:09;8.20;;;1.45;;
39694;SDS011;25367;-35.352;149.036;2023-04-24T08:50:39;7.38;;;1.48;;
39694;SDS011;25367;-35.352;149.036;2023-04-24T08:53:10;8.25;;;1.27;;
39694;SDS011;25367;-35.352;149.036;2023-04-24T08:55:41;5.65;;;1.45;;
39694;SDS011;25367;-35.352;149.036;2023-04-24T08:58:14;10.65;;;1.42;;
39694;SDS011;25367;-35.352;149.036;2023-04-24T09:00:44;4.07;;;1.25;;
39694;SDS011;25367;-35.352;149.036;2023-04-24T09:03:13;5.35;;;1.33;;
39694;SDS011;25367;-35.352;149.036;2023-04-24T09:05:44;9.27;;;1.48;;
39694;SDS011;25367;-35.352;149.036;2023-04-24T09:08:16;6.55;;;1.55;;
39694;SDS011;25367;-35.352;149.036;2023-04-24T09:10:48;6.93;;;1.67;;
39694;SDS011;25367;-35.352;149.036;2023-04-24T09:13:18;5.97;;;1.40;;
39694;SDS011;25367;-35.352;149.036;2023-04-24T09:15:48;9.60;;;1.52;;
39694;SDS011;25367;-35.352;149.036;2023-04-24T09:18:17;5.88;;;1.40;;
39694;SDS011;25367;-35.352;149.036;2023-04-24T09:23:31;8.70;;;1.98;;
39694;SDS011;25367;-35.352;149.036;2023-04-24T09:26:02;6.15;;;1.10;;
39694;SDS011;25367;-35.352;149.036;2023-04-24T09:28:32;8.88;;;1.30;;
39694;SDS011;25367;-35.352;149.036;2023-04-24T09:31:05;10.27;;;1.40;;
39694;SDS011;25367;-35.352;149.036;2023-04-24T09:33:35;5.10;;;1.02;;
39694;SDS011;25367;-35.352;149.036;2023-04-24T09:36:04;6.93;;;1.30;;
39694;SDS011;25367;-35.352;149.036;2023-04-24T09:38:34;6.20;;;1.50;;
39694;SDS011;25367;-35.352;149.036;2023-04-24T09:41:07;6.68;;;1.02;;
39694;SDS011;25367;-35.352;149.036;2023-04-24T09:43:40;3.03;;;1.15;;
39694;SDS011;25367;-35.352;149.036;2023-04-24T09:46:10;6.05;;;1.10;;
39694;SDS011;25367;-35.352;149.036;2023-04-24T09:48:39;3.40;;;1.08;;
39694;SDS011;25367;-35.352;149.036;2023-04-24T09:51:09;5.97;;;1.27;;
39694;SDS011;25367;-35.352;149.036;2023-04-24T09:53:44;3.17;;;1.40;;
39694;SDS011;25367;-35.352;149.036;2023-04-24T09:56:20;5.97;;;1.48;;
39694;SDS011;25367;-35.352;149.036;2023-04-24T09:58:52;6.45;;;1.67;;
39694;SDS011;25367;-35.352;149.036;2023-04-24T10:01:29;7.65;;;1.90;;
39694;SDS011;25367;-35.352;149.036;2023-04-24T10:03:59;4.03;;;1.42;;
39694;SDS011;25367;-35.352;149.036;2023-04-24T10:06:33;5.60;;;1.23;;
39694;SDS011;25367;-35.352;149.036;2023-04-24T10:09:03;4.13;;;1.60;;
39694;SDS011;25367;-35.352;149.036;2023-04-24T10:11:35;3.60;;;1.60;;
39694;SDS011;25367;-35.352;149.036;2023-04-24T10:14:05;6.57;;;1.33;;
39694;SDS011;25367;-35.352;149.036;2023-04-24T10:16:36;3.45;;;1.40;;
39694;SDS011;25367;-35.352;149.036;2023-04-24T10:19:06;3.28;;;1.58;;
39694;SDS011;25367;-35.352;149.036;2023-04-24T10:21:36;3.67;;;1.25;;
39694;SDS011;25367;-35.352;149.036;2023-04-24T10:24:05;3.40;;;1.35;;
39694;SDS011;25367;-35.352;149.036;2023-04-24T10:26:38;2.53;;;1.40;;
39694;SDS011;25367;-35.352;149.036;2023-04-24T10:29:10;4.82;;;1.65;;
39694;SDS011;25367;-35.352;149.036;2023-04-24T10:31:40;4.07;;;1.17;;
39694;SDS011;25367;-35.352;149.036;2023-04-24T10:34:10;9.23;;;1.67;;
39694;SDS011;25367;-35.352;149.036;2023-04-24T10:36:43;3.63;;;1.25;;
39694;SDS011;25367;-35.352;149.036;2023-04-24T10:39:19;3.55;;;1.45;;
39694;SDS011;25367;-35.352;149.036;2023-04-24T10:41:52;2.78;;;1.50;;
39694;SDS011;25367;-35.352;149.036;2023-04-24T10:44:22;3.85;;;1.38;;
39694;SDS011;25367;-35.352;149.036;2023-04-24T10:46:53;5.63;;;1.58;;
39694;SDS011;25367;-35.352;149.036;2023-04-24T10:49:27;3.50;;;1.48;;
39694;SDS011;25367;-35.352;149.036;2023-04-24T10:52:00;9.23;;;1.95;;
39694;SDS011;25367;-35.352;149.036;2023-04-24T10:54:33;7.87;;;1.70;;
39694;SDS011;25367;-35.352;149.036;2023-04-24T11:02:49;11.80;;;1.48;;
39694;SDS011;25367;-35.352;149.036;2023-04-24T11:05:21;5.72;;;1.48;;
39694;SDS011;25367;-35.352;149.036;2023-04-24T11:09:07;8.05;;;2.10;;
39694;SDS011;25367;-35.352;149.036;2023-04-24T11:11:37;5.72;;;1.50;;
39694;SDS011;25367;-35.352;149.036;2023-04-24T11:14:13;9.65;;;1.60;;
39694;SDS011;25367;-35.352;149.036;2023-04-24T11:16:43;8.52;;;1.65;;
39694;SDS011;25367;-35.352;149.036;2023-04-24T11:19:20;5.50;;;1.17;;
39694;SDS011;25367;-35.352;149.036;2023-04-24T11:21:55;3.35;;;1.25;;
39694;SDS011;25367;-35.352;149.036;2023-04-24T11:24:28;7.03;;;1.63;;
39694;SDS011;25367;-35.352;149.036;2023-04-24T11:27:01;13.18;;;1.35;;
39694;SDS011;25367;-35.352;149.036;2023-04-24T11:29:41;4.47;;;1.20;;
39694;SDS011;25367;-35.352;149.036;2023-04-24T11:32:15;4.38;;;1.27;;
39694;SDS011;25367;-35.352;149.036;2023-04-24T11:34:52;3.13;;;1.35;;
39694;SDS011;25367;-35.352;149.036;2023-04-24T11:37:23;2.33;;;0.90;;
39694;SDS011;25367;-35.352;149.036;2023-04-24T11:39:57;3.53;;;1.25;;
39694;SDS011;25367;-35.352;149.036;2023-04-24T11:42:27;6.93;;;1.60;;
39694;SDS011;25367;-35.352;149.036;2023-04-24T11:45:07;3.88;;;1.40;;
39694;SDS011;25367;-35.352;149.036;2023-04-24T11:47:37;5.72;;;1.30;;
39694;SDS011;25367;-35.352;149.036;2023-04-24T20:09:22;1.45;;;1.00;;
39694;SDS011;25367;-35.352;149.036;2023-04-24T20:11:51;2.40;;;1.00;;
39694;SDS011;25367;-35.352;149.036;2023-04-24T20:14:21;2.42;;;0.85;;
39694;SDS011;25367;-35.352;149.036;2023-04-24T20:16:54;0.90;;;0.50;;
39694;SDS011;25367;-35.352;149.036;2023-04-24T20:19:23;1.27;;;0.65;;
39694;SDS011;25367;-35.352;149.036;2023-04-24T20:21:55;3.08;;;0.60;;
39694;SDS011;25367;-35.352;149.036;2023-04-24T20:24:28;3.70;;;1.00;;
39694;SDS011;25367;-35.352;149.036;2023-04-24T20:26:58;1.55;;;0.60;;
39694;SDS011;25367;-35.352;149.036;2023-04-24T20:29:28;1.67;;;0.75;;
39694;SDS011;25367;-35.352;149.036;2023-04-24T20:31:57;2.25;;;0.70;;
39694;SDS011;25367;-35.352;149.036;2023-04-24T20:34:26;2.10;;;0.90;;
39694;SDS011;25367;-35.352;149.036;2023-04-24T20:36:56;1.00;;;0.77;;
39694;SDS011;25367;-35.352;149.036;2023-04-24T20:39:28;1.90;;;0.70;;
39694;SDS011;25367;-35.352;149.036;2023-04-24T20:41:57;1.13;;;0.80;;
39694;SDS011;25367;-35.352;149.036;2023-04-24T20:44:27;1.73;;;0.70;;
39694;SDS011;25367;-35.352;149.036;2023-04-24T20:46:56;1.95;;;1.17;;
39694;SDS011;25367;-35.352;149.036;2023-04-24T20:49:26;3.72;;;0.70;;
39694;SDS011;25367;-35.352;149.036;2023-04-24T20:51:55;1.60;;;0.80;;
39694;SDS011;25367;-35.352;149.036;2023-04-24T20:54:26;1.98;;;0.70;;
39694;SDS011;25367;-35.352;149.036;2023-04-24T20:56:56;1.40;;;0.93;;
39694;SDS011;25367;-35.352;149.036;2023-04-24T20:59:25;2.67;;;0.80;;
39694;SDS011;25367;-35.352;149.036;2023-04-24T21:01:55;1.05;;;0.65;;
39694;SDS011;25367;-35.352;149.036;2023-04-24T21:04:25;1.23;;;0.60;;
39694;SDS011;25367;-35.352;149.036;2023-04-24T21:06:54;1.02;;;0.75;;
39694;SDS011;25367;-35.352;149.036;2023-04-24T21:09:23;1.05;;;0.45;;
39694;SDS011;25367;-35.352;149.036;2023-04-24T21:11:55;6.10;;;1.00;;
39694;SDS011;25367;-35.352;149.036;2023-04-24T21:14:24;2.72;;;0.60;;
39694;SDS011;25367;-35.352;149.036;2023-04-24T21:16:53;3.85;;;0.68;;
39694;SDS011;25367;-35.352;149.036;2023-04-24T21:19:23;4.30;;;0.93;;
39694;SDS011;25367;-35.352;149.036;2023-04-24T21:21:52;1.67;;;0.70;;
39694;SDS011;25367;-35.352;149.036;2023-04-24T21:24:22;1.35;;;0.70;;
39694;SDS011;25367;-35.352;149.036;2023-04-24T21:26:53;1.95;;;0.93;;
39694;SDS011;25367;-35.352;149.036;2023-04-24T21:29:23;2.63;;;0.90;;
39694;SDS011;25367;-35.352;149.036;2023-04-24T21:31:52;3.05;;;0.90;;
39694;SDS011;25367;-35.352;149.036;2023-04-24T21:34:22;5.47;;;1.55;;
39694;SDS011;25367;-35.352;149.036;2023-04-24T21:36:51;3.55;;;1.10;;
39694;SDS011;25367;-35.352;149.036;2023-04-24T21:39:20;4.07;;;1.00;;
39694;SDS011;25367;-35.352;149.036;2023-04-24T21:41:50;1.88;;;0.80;;
39694;SDS011;25367;-35.352;149.036;2023-04-24T21:44:21;9.75;;;0.98;;
39694;SDS011;25367;-35.352;149.036;2023-04-24T21:46:51;3.95;;;1.00;;
39694;SDS011;25367;-35.352;149.036;2023-04-24T21:49:20;5.82;;;1.23;;
39694;SDS011;25367;-35.352;149.036;2023-04-24T21:51:49;2.60;;;0.82;;
39694;SDS011;25367;-35.352;149.036;2023-04-24T21:54:22;2.97;;;0.73;;
39694;SDS011;25367;-35.352;149.036;2023-04-24T21:56:51;11.57;;;1.27;;
39694;SDS011;25367;-35.352;149.036;2023-04-24T21:59:22;2.47;;;0.70;;
39694;SDS011;25367;-35.352;149.036;2023-04-24T22:01:51;6.05;;;1.00;;
39694;SDS011;25367;-35.352;149.036;2023-04-24T22:04:21;2.10;;;0.82;;
39694;SDS011;25367;-35.352;149.036;2023-04-24T22:06:51;1.67;;;0.77;;
39694;SDS011;25367;-35.352;149.036;2023-04-24T22:09:20;1.95;;;0.80;;
39694;SDS011;25367;-35.352;149.036;2023-04-24T22:11:50;8.25;;;1.13;;
39694;SDS011;25367;-35.352;149.036;2023-04-24T22:14:22;2.47;;;0.80;;
39694;SDS011;25367;-35.352;149.036;2023-04-24T22:16:51;4.32;;;0.88;;
39694;SDS011;25367;-35.352;149.036;2023-04-24T22:19:23;2.88;;;1.00;;
39694;SDS011;25367;-35.352;149.036;2023-04-24T22:21:52;2.83;;;0.75;;
39694;SDS011;25367;-35.352;149.036;2023-04-24T22:24:22;4.45;;;0.80;;
39694;SDS011;25367;-35.352;149.036;2023-04-24T22:26:51;1.90;;;0.80;;
39694;SDS011;25367;-35.352;149.036;2023-04-24T22:29:23;2.20;;;0.98;;
39694;SDS011;25367;-35.352;149.036;2023-04-24T22:31:52;2.28;;;0.90;;
39694;SDS011;25367;-35.352;149.036;2023-04-24T22:34:22;10.77;;;1.05;;
39694;SDS011;25367;-35.352;149.036;2023-04-24T22:36:51;3.05;;;1.10;;
39694;SDS011;25367;-35.352;149.036;2023-04-24T22:39:21;3.58;;;0.82;;
39694;SDS011;25367;-35.352;149.036;2023-04-24T22:41:50;5.20;;;1.17;;
39694;SDS011;25367;-35.352;149.036;2023-04-24T22:44:19;7.93;;;1.00;;
39694;SDS011;25367;-35.352;149.036;2023-04-24T22:46:51;4.97;;;0.70;;
39694;SDS011;25367;-35.352;149.036;2023-04-24T22:49:20;4.68;;;0.82;;
39694;SDS011;25367;-35.352;149.036;2023-04-24T22:51:49;10.40;;;2.35;;
39694;SDS011;25367;-35.352;149.036;2023-04-24T22:54:19;5.22;;;1.33;;
39694;SDS011;25367;-35.352;149.036;2023-04-24T22:56:48;6.65;;;1.58;;
39694;SDS011;25367;-35.352;149.036;2023-04-24T22:59:18;4.93;;;1.67;;
39694;SDS011;25367;-35.352;149.036;2023-04-24T23:01:49;5.07;;;1.70;;
39694;SDS011;25367;-35.352;149.036;2023-04-24T23:04:18;4.38;;;1.70;;
39694;SDS011;25367;-35.352;149.036;2023-04-24T23:06:48;4.65;;;1.63;;
39694;SDS011;25367;-35.352;149.036;2023-04-24T23:09:17;4.30;;;1.85;;
39694;SDS011;25367;-35.352;149.036;2023-04-24T23:11:47;3.67;;;2.00;;
39694;SDS011;25367;-35.352;149.036;2023-04-24T23:14:16;7.75;;;2.63;;
39694;SDS011;25367;-35.352;149.036;2023-04-24T23:16:45;7.38;;;2.60;;
39694;SDS011;25367;-35.352;149.036;2023-04-24T23:19:18;8.13;;;2.05;;
39694;SDS011;25367;-35.352;149.036;2023-04-24T23:21:47;7.00;;;2.38;;
39694;SDS011;25367;-35.352;149.036;2023-04-24T23:24:17;9.02;;;3.38;;
39694;SDS011;25367;-35.352;149.036;2023-04-24T23:26:47;13.45;;;2.60;;
39694;SDS011;25367;-35.352;149.036;2023-04-24T23:29:16;5.28;;;2.40;;
39694;SDS011;25367;-35.352;149.036;2023-04-24T23:31:46;9.00;;;2.65;;
39694;SDS011;25367;-35.352;149.036;2023-04-24T23:34:18;19.00;;;2.63;;
39694;SDS011;25367;-35.352;149.036;2023-04-24T23:36:47;14.90;;;2.60;;
39694;SDS011;25367;-35.352;149.036;2023-04-24T23:39:17;8.02;;;2.28;;
39694;SDS011;25367;-35.352;149.036;2023-04-24T23:41:47;12.70;;;2.92;;
39694;SDS011;25367;-35.352;149.036;2023-04-24T23:44:16;18.48;;;2.65;;
39694;SDS011;25367;-35.352;149.036;2023-04-24T23:46:46;11.73;;;2.25;;
39694;SDS011;25367;-35.352;149.036;2023-04-24T23:49:20;9.93;;;2.00;;
39694;SDS011;25367;-35.352;149.036;2023-04-24T23:51:49;10.57;;;2.58;;
39694;SDS011;25367;-35.352;149.036;2023-04-24T23:54:19;8.13;;;2.40;;
39694;SDS011;25367;-35.352;149.036;2023-04-24T23:56:48;13.00;;;2.05;;
39694;SDS011;25367;-35.352;149.036;2023-04-24T23:59:17;6.32;;;1.83;;
